• Join FlightAware (Why Join?)
  • Login
  • US Flag 
Gobble Gobble! 
11:10AM EST


 

Airport Tracker/Info


-or-


 

Live Flight TrackerFlight Track Log ✈ TAM3133 ✈ 13-Sep-2013 ✈ SBVT / VIX - SBSP / CGH

Flight Track Log - Related Links

Times and Time Zones

All times are in EDT time to prevent confusion due to time zone crossing. See the TAM3133 flight status page for this flight to view local times or setup timezone preferences in your user account.

Time Position Orientation Groundspeed Altitude Reporting Facility
EDT Latitude Longitude Course Direction KTS MPH feet Rate Location/Type
02:52PM -21.0365 -41.6926 239° Southwest  Level Estimated
02:53PM -21.0649 -41.7445 240° Southwest  Level Estimated
02:54PM -21.1212 -41.8476 240° Southwest  Level Estimated
02:55PM -21.1773 -41.9507 240° Southwest  Level Estimated
02:56PM -21.2334 -42.0539 240° Southwest  Level Estimated
02:57PM -21.2895 -42.1572 240° Southwest  Level Estimated
02:58PM -21.3455 -42.2606 240° Southwest  Level Estimated
02:59PM -21.4014 -42.3641 240° Southwest  Level Estimated
03:00PM -21.4573 -42.4676 240° Southwest  Level Estimated
03:01PM -21.5131 -42.5712 240° Southwest  Level Estimated
03:02PM -21.5688 -42.6749 240° Southwest  Level Estimated
03:03PM -21.6245 -42.7787 240° Southwest  Level Estimated
03:04PM -21.6801 -42.8825 240° Southwest  Level Estimated
03:05PM -21.7356 -42.9865 240° Southwest  Level Estimated
03:06PM -21.7911 -43.0905 240° Southwest  Level Estimated
03:07PM -21.8465 -43.1945 240° Southwest  Level Estimated
03:08PM -21.9018 -43.2987 240° Southwest  Level Estimated
03:09PM -21.9571 -43.4030 240° Southwest  Level Estimated
03:10PM -22.0123 -43.5073 240° Southwest  Level Estimated
03:11PM -22.0675 -43.6117 240° Southwest  Level Estimated
03:12PM -22.1226 -43.7162 240° Southwest  Level Estimated
03:13PM -22.1776 -43.8208 240° Southwest  Level Estimated
03:14PM -22.2325 -43.9255 240° Southwest  Level Estimated
03:15PM -22.2874 -44.0302 240° Southwest  Level Estimated
03:16PM -22.3422 -44.1351 241° Southwest  Level Estimated
03:17PM -22.3970 -44.2400 241° Southwest  Level Estimated
03:18PM -22.4517 -44.3450 241° Southwest  Level Estimated
03:19PM -22.5063 -44.4500 241° Southwest  Level Estimated
03:20PM -22.5608 -44.5552 241° Southwest  Level Estimated
03:21PM -22.6153 -44.6604 241° Southwest  Level Estimated
03:22PM -22.6697 -44.7657 241° Southwest  Level Estimated
03:23PM -22.7240 -44.8712 241° Southwest  Level Estimated
03:24PM -22.7783 -44.9766 241° Southwest  Level Estimated
03:25PM -22.8325 -45.0822 241° Southwest  Level Estimated
03:26PM -22.8866 -45.1879 241° Southwest  Level Estimated
03:27PM -22.9407 -45.2936 241° Southwest  Level Estimated
03:28PM -22.9906 -45.3914 241° Southwest  Level Estimated
03:29PM -23.0404 -45.4893 241° Southwest  Level Estimated
03:30PM -23.0902 -45.5873 241° Southwest  Level Estimated
03:31PM -23.1399 -45.6853 241° Southwest  Level Estimated
03:32PM -23.1896 -45.7834 241° Southwest  Level Estimated
03:33PM -23.2392 -45.8816 241° Southwest  Level Estimated
03:34PM -23.2887 -45.9798 241° Southwest  Level Estimated
03:35PM -23.3382 -46.0781 241° Southwest  Level Estimated
03:36PM -23.3876 -46.1765 241° Southwest  Level Estimated
03:37PM -23.4370 -46.2750 241° Southwest  Level Estimated
03:38PM -23.4862 -46.3735 241° Southwest  Level Estimated
03:39PM -23.5355 -46.4721 241° Southwest  Level Estimated
03:40PM -23.5846 -46.5708 241° Southwest  Level Estimated
03:41PM -23.6267 -46.6554 241° Southwest  Level Estimated
03:42PM -23.6267 -46.6554 114° Southeast  Level Estimated
03:43PM -23.6267 -46.6554 114° Southeast  Level Estimated
03:44PM -23.6267 -46.6554 114° Southeast  Level Estimated
03:45PM -23.6267 -46.6554 114° Southeast  Level Estimated
03:46PM -23.6267 -46.6554 114° Southeast  Level Estimated
03:47PM -23.6267 -46.6554 114° Southeast  Level Estimated
03:48PM -23.6267 -46.6554 114° Southeast  Level Estimated
03:49PM -23.6267 -46.6554 114° Southeast  Level Estimated
03:50PM -23.6267 -46.6554 114° Southeast  Level Estimated
03:51PM -23.6267 -46.6554 114° Southeast  Level Estimated
03:52PM -23.6267 -46.6554 114° Southeast  Level Estimated
03:53PM -23.6267 -46.6554 114° Southeast  Level Estimated
03:54PM -23.6267 -46.6554 114° Southeast  Level Estimated
03:55PM -23.6267 -46.6554 114° Southeast  Level Estimated
03:56PM -23.6267 -46.6554 114° Southeast  Level Estimated